Time;durP1;ratioP1;P1;durP2;ratioP2;P2;SDS_P1;SDS_P2;PMS_P1;PMS_P2;Temp;Humidity;BMP_temperature;BMP_pressure;BME280_temperature;BME280_humidity;BME280_pressure;Samples;Min_cycle;Max_cycle;Signal;HPM_P1;HPM_P2
2022/10/25 16:11:55;;;;;;;21.02;3.10;;;14.90;99.90;;;;;;5042781;28;20542;-86
2022/10/25 16:27:12;;;;;;;20.42;2.30;;;14.80;99.90;;;;;;4966196;28;20090;-89
2022/10/25 16:29:40;;;;;;;8.25;1.70;;;14.60;99.90;;;;;;4947166;28;20064;-88
2022/10/25 16:32:09;;;;;;;9.32;2.00;;;14.60;99.90;;;;;;5010219;28;20052;-87
2022/10/25 16:34:36;;;;;;;7.25;2.42;;;14.50;99.90;;;;;;5027987;28;20157;-88
2022/10/25 16:37:02;;;;;;;8.15;2.97;;;14.70;99.90;;;;;;5042649;28;20048;-86
2022/10/25 16:39:28;;;;;;;7.38;2.58;;;14.40;99.90;;;;;;5037527;28;20048;-86
2022/10/25 16:41:55;;;;;;;11.25;2.92;;;14.40;99.90;;;;;;5030423;28;20427;-87
2022/10/25 16:44:20;;;;;;;7.90;2.63;;;14.30;99.90;;;;;;5032251;28;21790;-86
2022/10/25 16:46:46;;;;;;;11.57;3.30;;;14.30;99.90;;;;;;5047290;28;20068;-87
2022/10/25 16:49:12;;;;;;;9.77;2.55;;;14.20;99.90;;;;;;5032908;28;20123;-88
2022/10/25 16:51:38;;;;;;;8.50;3.10;;;14.10;99.90;;;;;;5033757;28;20065;-88
2022/10/25 16:54:04;;;;;;;8.85;3.28;;;14.00;99.90;;;;;;5031380;28;20078;-85
2022/10/25 16:56:30;;;;;;;7.68;2.67;;;13.90;99.90;;;;;;5063958;28;20033;-86
2022/10/25 16:58:56;;;;;;;7.95;2.70;;;13.90;99.90;;;;;;5031892;28;20102;-86
2022/10/25 17:01:26;;;;;;;10.32;3.00;;;13.80;99.90;;;;;;5032231;28;20041;-85
2022/10/25 17:03:52;;;;;;;11.77;4.03;;;13.90;99.90;;;;;;5046026;28;20060;-86
2022/10/25 17:06:19;;;;;;;10.30;3.70;;;14.40;99.90;;;;;;5030807;28;20091;-86
2022/10/25 17:08:45;;;;;;;11.30;4.20;;;13.80;99.90;;;;;;5032282;28;20124;-86
2022/10/25 17:11:14;;;;;;;10.20;4.45;;;13.80;99.90;;;;;;5042381;28;20112;-87
2022/10/25 17:13:40;;;;;;;8.95;4.30;;;13.80;99.90;;;;;;5042618;28;20141;-86
2022/10/25 17:16:14;;;;;;;8.82;5.32;;;13.80;99.90;;;;;;5044751;28;20045;-86
2022/10/25 17:18:40;;;;;;;10.32;5.28;;;13.90;99.90;;;;;;5025355;28;20330;-86
2022/10/25 17:21:12;;;;;;;11.02;6.40;;;13.80;99.90;;;;;;5026997;28;20033;-85
2022/10/25 17:38:40;;;;;;;16.77;7.75;;;13.90;99.90;;;;;;5045472;28;20414;-90
2022/10/25 18:25:59;;;;;;;12.25;8.48;;;13.30;99.90;;;;;;5044195;28;20134;-90
2022/10/25 18:28:31;;;;;;;18.60;7.95;;;13.40;99.90;;;;;;5025031;28;20045;-87
2022/10/25 18:31:13;;;;;;;12.93;7.82;;;13.40;99.90;;;;;;5023809;28;20040;-87
2022/10/25 18:33:42;;;;;;;13.02;8.15;;;13.40;99.90;;;;;;5039332;28;20046;-87
2022/10/25 20:18:48;;;;;;;11.00;6.53;;;12.30;99.90;;;;;;5038510;28;20107;-87
2022/10/25 20:21:31;;;;;;;11.25;6.28;;;12.30;99.90;;;;;;5035711;28;20046;-88
2022/10/25 20:24:06;;;;;;;22.80;5.63;;;12.20;99.90;;;;;;5025969;28;20107;-86
2022/10/25 20:26:48;;;;;;;12.85;6.15;;;12.20;99.90;;;;;;5020189;28;20107;-88
2022/10/25 20:29:26;;;;;;;11.05;5.25;;;12.40;99.90;;;;;;5021123;28;20051;-87
2022/10/25 20:31:52;;;;;;;20.23;6.97;;;12.20;99.90;;;;;;5027084;28;20055;-88
2022/10/25 20:34:34;;;;;;;15.82;5.45;;;12.20;99.90;;;;;;5040060;28;20079;-88
2022/10/25 20:37:26;;;;;;;19.95;6.45;;;12.10;99.90;;;;;;5027923;28;20140;-86
2022/10/25 20:40:19;;;;;;;14.95;5.70;;;12.10;99.90;;;;;;5038277;28;20083;-88
2022/10/25 20:47:15;;;;;;;17.90;5.63;;;12.20;99.90;;;;;;5030458;28;20125;-88
2022/10/25 20:49:59;;;;;;;12.18;5.30;;;12.00;99.90;;;;;;5004602;28;20045;-85
2022/10/25 21:00:07;;;;;;;25.08;6.60;;;12.00;99.90;;;;;;4955366;28;20086;-88
2022/10/25 21:03:54;;;;;;;27.58;6.93;;;11.90;99.90;;;;;;4925764;28;20117;-86
2022/10/25 21:22:39;;;;;;;26.95;6.00;;;11.70;99.90;;;;;;4868518;29;20063;-89
2022/10/25 21:30:09;;;;;;;7.78;4.05;;;11.50;99.90;;;;;;4872797;29;20213;-88
2022/10/25 21:33:04;;;;;;;12.70;5.43;;;11.50;99.90;;;;;;4883789;29;20134;-88
2022/10/25 21:36:55;;;;;;;14.05;5.85;;;11.40;99.90;;;;;;4837533;29;20052;-88
2022/10/25 21:39:56;;;;;;;19.92;5.35;;;11.30;99.90;;;;;;4729594;30;20611;-88
2022/10/25 21:43:24;;;;;;;26.42;4.88;;;11.20;99.90;;;;;;4782353;29;20137;-88
2022/10/25 21:46:06;;;;;;;20.48;5.60;;;11.20;99.90;;;;;;4823150;29;20053;-87
2022/10/25 21:49:00;;;;;;;13.43;5.65;;;11.10;99.90;;;;;;4853094;29;20544;-87
2022/10/25 22:11:06;;;;;;;15.75;5.10;;;10.90;99.90;;;;;;4941342;28;20046;-88
2022/10/25 22:17:50;;;;;;;52.00;6.28;;;10.80;99.90;;;;;;4950136;28;20054;-87
2022/10/25 22:20:25;;;;;;;39.05;5.20;;;10.80;99.90;;;;;;4947814;28;20052;-87
2022/10/25 22:22:51;;;;;;;35.08;5.22;;;10.80;99.90;;;;;;5004091;28;20045;-86
2022/10/25 22:25:16;;;;;;;39.65;4.30;;;11.00;99.90;;;;;;5042380;28;20041;-87
2022/10/25 22:27:42;;;;;;;25.00;3.45;;;11.20;99.90;;;;;;5042893;28;20055;-86
2022/10/25 22:30:08;;;;;;;15.30;4.18;;;10.60;99.90;;;;;;5045862;28;20382;-86
2022/10/25 22:32:36;;;;;;;16.05;4.70;;;10.60;99.90;;;;;;5045221;28;20107;-86
2022/10/25 22:35:02;;;;;;;13.52;4.50;;;10.50;99.90;;;;;;5045370;28;20044;-87
2022/10/25 22:37:28;;;;;;;15.70;3.83;;;10.50;99.90;;;;;;5064420;28;20036;-86
2022/10/25 22:39:53;;;;;;;13.00;4.22;;;10.40;99.90;;;;;;5047262;28;20043;-86
2022/10/25 22:42:19;;;;;;;8.35;4.07;;;10.70;99.90;;;;;;5043639;28;20041;-86
2022/10/25 22:44:44;;;;;;;11.63;7.13;;;10.70;99.90;;;;;;5044279;28;20048;-87
2022/10/25 22:47:10;;;;;;;13.27;5.55;;;10.40;99.90;;;;;;5046601;28;20074;-86
2022/10/25 22:49:35;;;;;;;11.45;6.47;;;10.40;99.90;;;;;;5044452;28;20110;-86
2022/10/25 22:52:01;;;;;;;12.57;6.80;;;10.70;99.90;;;;;;5026151;28;20697;-86
2022/10/25 22:54:29;;;;;;;9.18;6.25;;;10.40;99.90;;;;;;5030912;28;20040;-87
2022/10/25 22:56:55;;;;;;;10.63;7.30;;;10.50;99.90;;;;;;5046148;28;20033;-86
2022/10/25 22:59:20;;;;;;;15.98;7.00;;;10.50;99.90;;;;;;5043325;28;20055;-86
2022/10/25 23:01:46;;;;;;;9.05;6.43;;;10.50;99.90;;;;;;5045301;28;20041;-86
2022/10/25 23:04:11;;;;;;;10.35;6.05;;;10.50;99.90;;;;;;5043709;28;20098;-86
2022/10/25 23:06:39;;;;;;;10.85;6.53;;;10.60;99.90;;;;;;5042878;28;20127;-86
2022/10/25 23:09:07;;;;;;;12.30;5.93;;;10.70;99.90;;;;;;5043675;28;20545;-86
2022/10/25 23:23:34;;;;;;;8.02;6.55;;;10.30;99.90;;;;;;5045367;28;20128;-86
2022/10/25 23:34:25;;;;;;;18.00;7.75;;;10.20;99.90;;;;;;5037557;28;20044;-86
2022/10/25 23:41:32;;;;;;;12.45;7.25;;;10.20;99.90;;;;;;5046652;28;20035;-86
2022/10/25 23:44:49;;;;;;;9.00;7.55;;;10.10;99.90;;;;;;5018940;28;20535;-86
2022/10/25 23:48:28;;;;;;;9.73;7.13;;;10.20;99.90;;;;;;5007269;28;20500;-86
2022/10/25 23:51:08;;;;;;;16.63;6.30;;;10.30;99.90;;;;;;5010384;28;20055;-86
